Time;durP1;ratioP1;P1;durP2;ratioP2;P2;SDS_P1;SDS_P2;PMS_P1;PMS_P2;Temp;Humidity;BMP_temperature;BMP_pressure;BME280_temperature;BME280_humidity;BME280_pressure;Samples;Min_cycle;Max_cycle;Signal;HPM_P1;HPM_P2
2022/03/05 00:00:10;;;;;;;32.33;16.13;;;;;;;6.20;44.08;100731.16;5387880;32;32841;-68
2022/03/05 00:03:13;;;;;;;33.85;16.45;;;;;;;5.01;47.76;100735.28;5387504;32;45235;-67
2022/03/05 00:06:15;;;;;;;35.90;16.87;;;;;;;5.46;46.61;100732.16;5375741;32;34625;-68
2022/03/05 00:09:17;;;;;;;35.90;18.60;;;;;;;5.27;47.40;100735.00;5386230;32;35565;-72
2022/03/05 00:12:20;;;;;;;36.67;19.37;;;;;;;5.58;47.08;100732.00;5395661;32;34740;-72
2022/03/05 00:15:24;;;;;;;36.83;19.07;;;;;;;5.09;49.18;100735.22;5370752;32;35520;-71
2022/03/05 00:18:27;;;;;;;39.13;19.50;;;;;;;5.55;48.07;100732.94;5389994;32;34851;-67
2022/03/05 00:21:29;;;;;;;42.05;21.08;;;;;;;5.51;48.57;100730.38;5398541;32;34421;-67
2022/03/05 00:24:31;;;;;;;45.23;20.63;;;;;;;6.09;47.23;100725.22;5357999;32;34513;-70
2022/03/05 00:27:34;;;;;;;40.67;20.13;;;;;;;6.24;46.88;100724.97;5376330;32;34623;-69
2022/03/05 00:30:36;;;;;;;42.83;21.00;;;;;;;5.65;48.57;100728.44;5372679;32;35682;-71
2022/03/05 00:33:38;;;;;;;41.97;20.93;;;;;;;4.79;50.86;100726.84;5383683;32;34714;-72
2022/03/05 00:36:40;;;;;;;42.10;21.77;;;;;;;5.02;50.72;100731.81;5373117;32;44227;-71
2022/03/05 00:39:42;;;;;;;41.43;21.70;;;;;;;5.68;49.20;100726.66;5368398;32;34749;-71
2022/03/05 00:42:44;;;;;;;43.50;22.77;;;;;;;5.42;49.31;100720.94;5354059;32;34586;-68
2022/03/05 00:45:47;;;;;;;39.67;21.07;;;;;;;5.46;48.85;100714.78;5374840;32;34973;-67
2022/03/05 00:48:49;;;;;;;44.63;21.73;;;;;;;5.33;49.11;100708.84;5364560;32;34492;-67
2022/03/05 00:51:52;;;;;;;43.97;22.50;;;;;;;5.01;50.04;100714.44;5386307;32;34706;-70
2022/03/05 00:54:54;;;;;;;42.92;23.05;;;;;;;4.94;50.19;100711.94;5382865;32;35507;-69
2022/03/05 00:57:56;;;;;;;44.43;22.40;;;;;;;4.71;51.64;100710.44;5353170;32;34508;-71
2022/03/05 01:00:59;;;;;;;41.17;22.13;;;;;;;4.51;51.79;100712.38;5379830;32;34193;-71
2022/03/05 01:04:01;;;;;;;44.83;22.27;;;;;;;4.07;53.12;100711.00;5372916;32;34612;-72
2022/03/05 01:07:04;;;;;;;41.80;20.93;;;;;;;4.41;51.90;100706.38;5389792;32;34600;-68
2022/03/05 01:10:07;;;;;;;42.23;21.83;;;;;;;4.27;52.35;100711.72;5382639;32;35108;-67
2022/03/05 01:13:09;;;;;;;41.87;21.80;;;;;;;5.01;50.05;100709.25;5359736;32;34049;-72
2022/03/05 01:16:12;;;;;;;42.17;21.00;;;;;;;4.33;52.20;100701.25;5394863;32;45054;-72
2022/03/05 01:19:14;;;;;;;41.45;19.92;;;;;;;4.81;51.17;100704.25;5382396;32;34791;-70
2022/03/05 01:22:16;;;;;;;39.87;19.97;;;;;;;5.42;49.02;100703.53;5383044;32;33642;-68
2022/03/05 01:25:19;;;;;;;39.33;20.47;;;;;;;5.79;47.82;100700.41;5381589;32;34723;-68
2022/03/05 01:28:21;;;;;;;43.13;20.40;;;;;;;5.17;48.95;100704.72;5380565;32;35274;-67
2022/03/05 01:31:23;;;;;;;39.50;20.57;;;;;;;5.64;48.22;100700.63;5382856;32;35242;-68
2022/03/05 01:34:26;;;;;;;35.43;17.60;;;;;;;5.23;48.14;100701.19;5385113;32;33759;-72
2022/03/05 01:37:28;;;;;;;35.53;17.27;;;;;;;5.13;47.96;100705.63;5380111;32;35442;-70
2022/03/05 01:40:30;;;;;;;40.20;19.27;;;;;;;4.60;48.82;100705.34;5356389;32;36787;-68
2022/03/05 01:43:33;;;;;;;42.57;18.93;;;;;;;4.53;49.42;100710.63;5385800;32;34492;-67
2022/03/05 01:46:38;;;;;;;39.90;20.13;;;;;;;4.23;51.03;100704.78;5353518;32;34824;-68
2022/03/05 01:49:40;;;;;;;41.83;20.60;;;;;;;4.78;50.29;100700.84;5374818;32;45046;-68
2022/03/05 01:52:43;;;;;;;40.53;20.83;;;;;;;5.02;50.13;100708.34;5376569;32;34293;-68
2022/03/05 01:55:45;;;;;;;38.83;20.63;;;;;;;4.86;50.65;100712.88;5382353;32;34238;-67
2022/03/05 01:58:48;;;;;;;42.57;20.40;;;;;;;4.83;50.43;100714.66;5372951;32;34714;-72
2022/03/05 02:01:51;;;;;;;36.93;19.73;;;;;;;4.35;51.25;100715.09;5387590;32;34751;-68
2022/03/05 02:04:53;;;;;;;37.27;19.23;;;;;;;4.41;51.25;100721.13;5389994;32;34565;-71
2022/03/05 02:07:55;;;;;;;36.17;20.10;;;;;;;4.40;51.69;100720.28;5372448;32;35730;-71
2022/03/05 02:11:03;;;;;;;43.47;21.40;;;;;;;4.07;51.93;100722.28;5389494;32;35001;-71
2022/03/05 02:14:06;;;;;;;39.20;19.77;;;;;;;4.34;50.82;100721.19;5371062;32;35022;-67
2022/03/05 02:17:08;;;;;;;41.70;20.50;;;;;;;4.75;50.54;100717.34;5359033;32;34593;-68
2022/03/05 02:20:10;;;;;;;40.53;21.87;;;;;;;3.78;52.38;100732.84;5389751;32;44445;-68
2022/03/05 02:23:12;;;;;;;44.43;22.00;;;;;;;3.45;53.48;100725.22;5387820;32;34340;-72
2022/03/05 02:26:14;;;;;;;45.33;22.53;;;;;;;3.79;53.03;100742.37;5381646;32;35133;-71
2022/03/05 02:29:17;;;;;;;48.70;23.47;;;;;;;3.87;52.86;100737.16;5361488;32;35100;-69
2022/03/05 02:32:19;;;;;;;42.83;23.10;;;;;;;4.62;50.42;100731.34;5389071;32;35016;-72
2022/03/05 02:35:21;;;;;;;41.47;22.80;;;;;;;4.14;51.67;100733.50;5398909;32;35015;-68
2022/03/05 02:38:24;;;;;;;40.70;22.03;;;;;;;3.71;52.91;100733.75;5371503;32;35366;-71
2022/03/05 02:41:26;;;;;;;46.93;21.97;;;;;;;3.61;52.96;100734.69;5372454;32;35960;-71
2022/03/05 02:44:28;;;;;;;40.83;21.27;;;;;;;4.01;51.42;100737.06;5364994;32;34705;-67
2022/03/05 02:47:30;;;;;;;42.03;21.03;;;;;;;3.68;52.90;100741.59;5389633;32;35103;-71
2022/03/05 02:50:32;;;;;;;41.63;19.40;;;;;;;3.67;52.34;100738.97;5384597;32;35182;-71
2022/03/05 02:53:35;;;;;;;41.67;20.40;;;;;;;3.78;52.60;100739.78;5360833;32;34642;-71
2022/03/05 02:56:38;;;;;;;39.90;20.83;;;;;;;3.51;52.68;100746.00;5399097;32;34388;-70
2022/03/05 02:59:40;;;;;;;38.33;19.93;;;;;;;4.77;49.57;100730.38;5361353;32;44338;-71
2022/03/05 03:02:45;;;;;;;43.17;20.03;;;;;;;5.25;47.69;100726.34;5391347;32;34902;-68
2022/03/05 03:05:48;;;;;;;42.63;19.37;;;;;;;3.97;50.47;100743.13;5384419;32;34961;-72
2022/03/05 03:08:50;;;;;;;39.73;19.40;;;;;;;3.50;52.24;100742.53;5379079;32;34630;-71
2022/03/05 03:11:52;;;;;;;40.20;20.60;;;;;;;3.82;51.25;100728.50;5390853;32;35055;-67
2022/03/05 03:14:55;;;;;;;39.60;20.43;;;;;;;3.66;51.80;100740.72;5356367;32;35373;-69
2022/03/05 03:17:57;;;;;;;37.10;18.87;;;;;;;4.09;50.01;100735.25;5390051;32;34696;-71
2022/03/05 03:20:59;;;;;;;39.43;18.93;;;;;;;4.57;49.46;100728.81;5381438;32;36454;-67
2022/03/05 03:24:01;;;;;;;39.20;19.87;;;;;;;4.06;50.05;100735.28;5387060;32;34839;-68
2022/03/05 03:27:04;;;;;;;35.23;18.50;;;;;;;4.11;49.42;100737.84;5383727;32;34816;-67
2022/03/05 03:30:08;;;;;;;35.17;17.57;;;;;;;4.20;49.69;100730.00;5358255;32;34646;-68
2022/03/05 03:33:10;;;;;;;;;;;;;;;3.22;52.38;100744.38;5390952;32;36998;-71
2022/03/05 03:36:12;;;;;;;34.67;17.83;;;;;;;3.61;51.48;100736.44;5387521;32;34486;-71
2022/03/05 03:39:14;;;;;;;36.37;16.50;;;;;;;4.15;49.62;100730.00;5374075;32;35003;-67
2022/03/05 03:42:16;;;;;;;32.53;16.57;;;;;;;4.75;47.79;100734.69;5365760;32;34828;-71
2022/03/05 03:45:19;;;;;;;32.57;16.67;;;;;;;4.86;47.79;100736.31;5388698;32;34599;-70
2022/03/05 03:48:21;;;;;;;32.07;16.47;;;;;;;4.58;47.56;100733.13;5353381;32;34708;-72
2022/03/05 03:51:23;;;;;;;34.40;16.43;;;;;;;4.29;48.50;100735.97;5378987;32;34693;-73
2022/03/05 03:54:25;;;;;;;32.87;15.93;;;;;;;3.67;50.08;100732.06;5391629;32;34903;-67
2022/03/05 03:57:28;;;;;;;29.90;16.03;;;;;;;3.51;50.81;100741.66;5363479;32;34988;-68
2022/03/05 04:00:30;;;;;;;28.70;14.17;;;;;;;3.77;49.95;100731.13;5366212;32;34695;-72
2022/03/05 04:03:32;;;;;;;35.00;16.83;;;;;;;4.16;48.62;100736.06;5338179;32;35161;-67
2022/03/05 04:09:55;;;;;;;34.80;16.27;;;;;;;4.10;49.91;100741.31;5381889;32;34786;-72
2022/03/05 04:12:58;;;;;;;32.27;16.33;;;;;;;4.06;49.96;100737.91;5382418;32;34752;-68
2022/03/05 04:16:00;;;;;;;34.53;15.47;;;;;;;4.14;50.35;100743.91;5391684;32;34233;-68
2022/03/05 04:19:02;;;;;;;31.23;15.97;;;;;;;4.93;48.13;100738.87;5386645;32;35243;-67
2022/03/05 04:22:04;;;;;;;29.83;15.53;;;;;;;4.11;49.17;100743.91;5371710;32;34818;-70
2022/03/05 04:25:07;;;;;;;28.27;13.93;;;;;;;4.38;48.28;100744.56;5386494;32;34498;-68
2022/03/05 04:28:09;;;;;;;24.83;13.47;;;;;;;4.58;46.46;100747.91;5387020;32;37897;-67
2022/03/05 04:31:12;;;;;;;26.70;13.20;;;;;;;4.10;47.88;100755.19;5386190;32;35168;-67
2022/03/05 04:34:14;;;;;;;25.53;12.83;;;;;;;3.54;48.67;100761.56;5382876;32;35240;-71
2022/03/05 04:37:17;;;;;;;27.30;13.27;;;;;;;3.51;49.19;100761.59;5393568;32;34713;-72
2022/03/05 04:40:19;;;;;;;24.20;12.43;;;;;;;3.90;47.97;100754.47;5357678;32;35684;-69
2022/03/05 04:43:21;;;;;;;26.47;13.17;;;;;;;4.21;47.60;100757.72;5383615;32;34567;-67
2022/03/05 04:46:24;;;;;;;28.77;14.00;;;;;;;3.35;49.33;100767.69;5386222;32;35232;-68
2022/03/05 04:49:26;;;;;;;26.67;12.30;;;;;;;4.24;47.53;100761.16;5391509;32;34542;-72
2022/03/05 04:52:28;;;;;;;25.73;12.53;;;;;;;4.96;45.43;100757.94;5384071;32;34880;-73
2022/03/05 04:55:30;;;;;;;25.00;12.10;;;;;;;4.17;47.04;100761.22;5377186;32;34074;-68
2022/03/05 04:58:33;;;;;;;24.20;11.83;;;;;;;3.06;49.46;100763.47;5359201;32;34419;-71
2022/03/05 05:01:35;;;;;;;25.97;11.60;;;;;;;3.99;47.26;100767.38;5387194;32;35227;-71
2022/03/05 05:04:37;;;;;;;24.50;10.93;;;;;;;3.27;49.16;100762.53;5388811;32;34650;-70
2022/03/05 05:07:40;;;;;;;22.87;11.50;;;;;;;4.88;45.30;100758.00;5370271;32;43127;-71
2022/03/05 05:10:42;;;;;;;21.20;10.27;;;;;;;4.44;45.57;100767.94;5382058;32;35319;-67
2022/03/05 05:13:50;;;;;;;22.53;10.63;;;;;;;3.77;47.03;100759.72;5382631;32;35383;-72
2022/03/05 05:16:52;;;;;;;22.20;10.00;;;;;;;4.12;46.63;100769.03;5386602;32;35141;-68
2022/03/05 05:19:54;;;;;;;21.00;9.83;;;;;;;4.10;46.77;100763.00;5383903;32;35547;-70
2022/03/05 05:22:56;;;;;;;20.90;10.20;;;;;;;4.18;46.31;100770.75;5385368;32;36189;-71
2022/03/05 05:25:58;;;;;;;22.90;11.37;;;;;;;4.71;45.17;100766.88;5383311;32;34810;-72
2022/03/05 05:29:01;;;;;;;21.80;10.63;;;;;;;3.69;47.40;100782.31;5385582;32;34112;-68
2022/03/05 05:32:03;;;;;;;23.10;10.70;;;;;;;4.76;45.22;100771.12;5385273;32;34110;-71
2022/03/05 05:35:07;;;;;;;22.13;9.73;;;;;;;5.01;44.00;100776.97;5382779;32;34652;-71
2022/03/05 05:38:09;;;;;;;24.73;10.90;;;;;;;4.37;45.71;100787.09;5369185;32;34785;-72
2022/03/05 05:41:12;;;;;;;22.40;10.07;;;;;;;3.68;47.54;100790.13;5380996;32;35094;-68
2022/03/05 05:44:14;;;;;;;22.77;10.63;;;;;;;3.60;47.77;100792.72;5368280;32;34096;-67
2022/03/05 05:47:17;;;;;;;23.23;10.70;;;;;;;3.73;47.67;100789.19;5392991;32;35259;-71
2022/03/05 05:50:19;;;;;;;21.90;10.00;;;;;;;4.03;46.76;100793.37;5379698;32;35491;-71
2022/03/05 05:53:22;;;;;;;23.40;11.27;;;;;;;4.86;45.26;100787.56;5365644;32;35697;-70
2022/03/05 05:56:24;;;;;;;23.73;10.50;;;;;;;4.54;45.92;100796.50;5377450;32;34905;-68
2022/03/05 05:59:27;;;;;;;22.47;10.33;;;;;;;4.28;46.03;100798.44;5370772;32;35290;-68
2022/03/05 06:02:29;;;;;;;21.40;9.20;;;;;;;3.42;48.68;100814.47;5390750;32;34583;-71
2022/03/05 06:05:31;;;;;;;23.70;10.63;;;;;;;4.22;46.58;100798.47;5379004;32;35617;-68
2022/03/05 06:08:34;;;;;;;21.67;10.70;;;;;;;3.60;48.40;100813.53;5369893;32;33981;-71
2022/03/05 06:11:36;;;;;;;22.93;10.93;;;;;;;4.62;46.03;100814.66;5389115;32;35251;-72
2022/03/05 06:14:38;;;;;;;21.60;11.17;;;;;;;3.77;47.63;100824.72;5382112;32;35104;-68
2022/03/05 06:17:43;;;;;;;28.83;11.90;;;;;;;3.51;48.87;100824.81;5392406;32;45627;-71
2022/03/05 06:20:46;;;;;;;29.30;12.60;;;;;;;3.85;48.86;100829.03;5374452;32;35623;-73
2022/03/05 06:23:48;;;;;;;27.40;12.40;;;;;;;3.03;51.49;100836.22;5387031;32;35044;-72
2022/03/05 06:26:50;;;;;;;30.60;13.27;;;;;;;3.65;50.48;100829.09;5347835;32;34962;-70
2022/03/05 06:29:52;;;;;;;25.40;12.23;;;;;;;3.86;50.00;100830.75;5383222;32;33775;-71
2022/03/05 06:32:54;;;;;;;23.30;12.10;;;;;;;4.03;49.54;100839.34;5365987;32;35217;-72
2022/03/05 06:35:57;;;;;;;25.07;13.10;;;;;;;4.99;47.17;100820.41;5359690;32;34845;-67
2022/03/05 06:38:59;;;;;;;26.60;13.00;;;;;;;4.00;49.45;100837.63;5377860;32;34954;-72
2022/03/05 06:42:02;;;;;;;21.60;11.83;;;;;;;4.84;47.83;100836.19;5345726;32;33661;-71
2022/03/05 06:45:08;;;;;;;24.83;12.53;;;;;;;4.98;46.64;100830.88;5389095;32;35623;-68
2022/03/05 06:48:10;;;;;;;29.30;11.07;;;;;;;4.32;47.55;100831.38;5367038;32;44156;-70
2022/03/05 06:51:13;;;;;;;23.70;10.67;;;;;;;4.95;46.09;100834.34;5394498;32;34838;-71
2022/03/05 06:54:15;;;;;;;22.27;11.67;;;;;;;4.07;48.10;100841.94;5388788;32;34167;-67
2022/03/05 06:57:18;;;;;;;38.60;13.33;;;;;;;4.36;47.23;100843.47;5369805;32;35244;-67
2022/03/05 07:00:21;;;;;;;22.37;10.88;;;;;;;4.01;47.90;100841.09;5377007;32;34835;-68
2022/03/05 07:03:23;;;;;;;19.50;9.70;;;;;;;4.01;46.62;100839.34;5377583;32;35354;-71
2022/03/05 07:06:26;;;;;;;22.73;10.83;;;;;;;5.17;44.63;100837.63;5397186;32;35293;-68
2022/03/05 07:09:28;;;;;;;18.77;10.00;;;;;;;4.41;46.28;100839.12;5385221;32;35548;-72
2022/03/05 07:12:30;;;;;;;23.47;10.83;;;;;;;4.81;45.59;100844.88;5395482;32;34340;-68
2022/03/05 07:15:38;;;;;;;25.60;10.93;;;;;;;4.93;44.97;100849.12;5378694;32;34048;-68
2022/03/05 07:18:40;;;;;;;19.80;10.33;;;;;;;5.16;44.85;100843.72;5382506;32;46436;-72
2022/03/05 07:21:43;;;;;;;20.90;9.90;;;;;;;5.40;45.00;100847.81;5359802;32;34787;-68
2022/03/05 07:24:45;;;;;;;20.13;9.73;;;;;;;5.80;44.19;100845.62;5387276;32;34716;-72
2022/03/05 07:27:47;;;;;;;20.83;9.90;;;;;;;5.32;44.52;100849.63;5395410;32;34960;-68
2022/03/05 07:30:51;;;;;;;17.93;9.33;;;;;;;4.40;47.09;100857.34;5387831;32;34833;-68
2022/03/05 07:33:53;;;;;;;23.02;10.35;;;;;;;5.53;45.45;100848.53;5361272;32;34224;-71
2022/03/05 07:36:56;;;;;;;22.10;9.57;;;;;;;4.26;48.73;100863.50;5387647;32;35410;-69
2022/03/05 07:39:58;;;;;;;21.40;9.93;;;;;;;4.93;47.72;100853.47;5344127;32;34643;-71
2022/03/05 07:43:00;;;;;;;22.13;10.20;;;;;;;4.19;49.70;100867.03;5384081;32;34452;-73
2022/03/05 07:46:02;;;;;;;23.77;10.53;;;;;;;4.81;48.90;100860.50;5387361;32;34021;-69
2022/03/05 07:49:05;;;;;;;23.60;10.00;;;;;;;4.84;48.71;100860.50;5382471;32;34196;-70
2022/03/05 07:52:07;;;;;;;19.73;10.40;;;;;;;4.60;50.47;100869.34;5385645;32;35810;-68
2022/03/05 07:55:09;;;;;;;22.03;9.90;;;;;;;4.81;49.70;100865.72;5378359;32;37955;-67
2022/03/05 07:58:12;;;;;;;19.73;8.93;;;;;;;4.73;50.28;100872.72;5379312;32;44652;-71
2022/03/05 08:01:14;;;;;;;25.20;10.33;;;;;;;5.25;48.95;100869.69;5370236;32;35778;-66
2022/03/05 08:04:17;;;;;;;24.70;9.93;;;;;;;5.03;50.17;100874.25;5375042;32;34560;-72
2022/03/05 08:07:19;;;;;;;20.90;10.07;;;;;;;4.57;51.68;100881.50;5356254;32;35800;-72
2022/03/05 08:10:21;;;;;;;23.00;10.53;;;;;;;5.43;49.28;100879.94;5389130;32;34573;-69
2022/03/05 08:13:23;;;;;;;21.93;10.60;;;;;;;5.71;48.61;100870.06;5344747;32;34531;-73
2022/03/05 08:16:26;;;;;;;23.83;10.17;;;;;;;5.55;49.09;100875.47;5388811;32;36707;-72
2022/03/05 08:19:28;;;;;;;26.60;11.70;;;;;;;5.96;48.26;100869.81;5391288;32;35214;-72
2022/03/05 08:22:51;;;;;;;20.40;10.47;;;;;;;5.97;48.13;100869.78;5376099;32;36148;-71
2022/03/05 08:25:53;;;;;;;24.13;11.07;;;;;;;6.66;46.03;100873.19;5365921;32;35191;-72
2022/03/05 08:28:55;;;;;;;24.63;11.03;;;;;;;5.81;48.25;100876.03;5373250;32;34726;-68
2022/03/05 08:31:57;;;;;;;35.20;11.33;;;;;;;4.59;51.86;100887.59;5391695;32;34810;-67
2022/03/05 08:34:59;;;;;;;23.23;11.20;;;;;;;5.88;48.42;100864.66;5353337;32;34633;-71
2022/03/05 08:38:02;;;;;;;23.03;11.93;;;;;;;6.32;47.02;100878.03;5375974;32;34529;-72
2022/03/05 08:41:04;;;;;;;24.20;11.50;;;;;;;7.00;45.43;100879.59;5348898;32;33999;-68
2022/03/05 08:44:07;;;;;;;24.00;10.73;;;;;;;7.10;44.98;100874.22;5383869;32;34587;-68
2022/03/05 08:47:09;;;;;;;26.03;11.17;;;;;;;7.04;44.81;100883.03;5375017;32;34729;-71
2022/03/05 08:50:11;;;;;;;27.93;13.83;;;;;;;5.78;47.75;100888.25;5377883;32;44661;-72
2022/03/05 08:53:13;;;;;;;23.37;11.53;;;;;;;6.13;46.94;100874.81;5383764;32;34240;-71
2022/03/05 08:56:16;;;;;;;24.40;11.70;;;;;;;7.22;44.18;100884.47;5383876;32;34838;-71
2022/03/05 08:59:18;;;;;;;25.00;11.17;;;;;;;7.39;43.04;100877.16;5371791;32;34801;-75
2022/03/05 09:02:20;;;;;;;19.63;10.23;;;;;;;5.99;45.40;100872.38;5387861;32;35524;-68
2022/03/05 09:05:22;;;;;;;23.50;11.70;;;;;;;6.55;44.87;100880.31;5370718;32;34608;-71
2022/03/05 09:08:25;;;;;;;21.13;11.23;;;;;;;7.66;42.37;100869.69;5366654;32;35906;-71
2022/03/05 09:11:27;;;;;;;23.20;10.50;;;;;;;8.13;41.02;100874.84;5379830;32;35439;-67
2022/03/05 09:14:29;;;;;;;19.67;9.80;;;;;;;7.48;41.27;100874.41;5383646;32;35304;-73
2022/03/05 09:17:31;;;;;;;17.73;8.57;;;;;;;6.57;43.10;100868.09;5380968;32;34650;-67
2022/03/05 09:20:33;;;;;;;17.70;8.57;;;;;;;6.78;42.70;100883.44;5387351;32;34118;-68
2022/03/05 09:23:36;;;;;;;18.90;8.20;;;;;;;7.76;39.25;100871.25;5385010;32;34938;-71
2022/03/05 09:26:38;;;;;;;16.73;8.43;;;;;;;7.47;39.08;100870.06;5371395;32;37442;-72
2022/03/05 09:29:40;;;;;;;16.57;7.67;;;;;;;7.38;38.87;100869.34;5388552;32;44447;-72
2022/03/05 09:32:44;;;;;;;16.35;7.82;;;;;;;7.32;38.54;100868.56;5387951;32;33007;-68
2022/03/05 09:35:46;;;;;;;14.90;7.55;;;;;;;8.59;35.97;100865.13;5385820;32;33583;-68
2022/03/05 09:38:48;;;;;;;19.30;8.20;;;;;;;8.26;36.31;100866.72;5364395;32;35413;-74
2022/03/05 09:41:53;;;;;;;14.93;7.60;;;;;;;7.68;37.23;100862.69;5352247;32;34694;-67
2022/03/05 09:44:55;;;;;;;18.10;9.17;;;;;;;8.94;34.58;100864.28;5366515;32;34279;-68
2022/03/05 09:47:57;;;;;;;18.40;8.57;;;;;;;10.16;32.89;100858.28;5392680;32;34182;-72
2022/03/05 09:51:00;;;;;;;15.50;7.90;;;;;;;10.35;32.56;100853.38;5391774;32;35859;-68
2022/03/05 09:54:11;;;;;;;17.00;7.80;;;;;;;9.40;33.41;100855.22;5385414;32;45300;-68
2022/03/05 09:57:14;;;;;;;18.00;8.80;;;;;;;10.22;32.19;100847.59;5373989;32;36328;-72
2022/03/05 10:00:16;;;;;;;16.17;8.52;;;;;;;9.02;34.05;100856.25;5390399;32;35126;-72
2022/03/05 10:03:20;;;;;;;15.17;7.33;;;;;;;9.25;34.43;100850.37;5384201;32;35355;-67
2022/03/05 10:06:23;;;;;;;;;;;;;;;8.72;35.27;100850.84;5383431;32;35148;-68
2022/03/05 10:09:25;;;;;;;17.53;7.77;;;;;;;9.04;34.24;100844.81;5381756;32;34837;-71
2022/03/05 10:12:31;;;;;;;14.57;7.83;;;;;;;10.45;31.82;100840.84;5383789;32;34884;-68
2022/03/05 10:15:35;;;;;;;20.47;8.50;;;;;;;10.08;31.51;100838.44;5374887;32;34555;-71
2022/03/05 10:18:40;;;;;;;16.00;7.90;;;;;;;9.30;33.44;100845.88;5355584;32;34627;-72
2022/03/05 10:22:05;;;;;;;16.27;8.00;;;;;;;10.52;31.02;100831.84;5398038;32;44533;-67
2022/03/05 10:25:07;;;;;;;17.47;7.13;;;;;;;9.00;33.10;100842.28;5385757;32;34474;-68
2022/03/05 10:28:19;;;;;;;18.50;7.33;;;;;;;11.10;29.78;100827.28;5367059;32;37662;-71
2022/03/05 10:31:21;;;;;;;13.50;6.90;;;;;;;9.41;32.56;100843.84;5360457;32;34488;-68
2022/03/05 10:34:24;;;;;;;23.20;8.10;;;;;;;11.04;30.03;100830.13;5388882;32;34152;-69
2022/03/05 10:37:27;;;;;;;16.50;7.80;;;;;;;8.68;33.39;100838.69;5389551;32;34925;-73
2022/03/05 10:40:33;;;;;;;16.15;7.30;;;;;;;7.31;36.42;100856.41;5367651;32;34861;-70
2022/03/05 10:43:35;;;;;;;16.47;8.17;;;;;;;7.80;35.21;100852.00;5380546;32;35488;-68
2022/03/05 10:46:41;;;;;;;15.43;8.00;;;;;;;9.25;33.03;100839.91;5379885;32;36554;-72
2022/03/05 10:49:43;;;;;;;15.50;7.97;;;;;;;8.53;33.81;100841.69;5393206;32;44775;-72
2022/03/05 10:52:50;;;;;;;16.90;7.93;;;;;;;9.70;32.44;100841.25;5368697;32;34742;-73
2022/03/05 10:55:52;;;;;;;20.33;8.70;;;;;;;8.37;34.65;100842.06;5382475;32;33829;-68
2022/03/05 10:59:04;;;;;;;17.23;8.47;;;;;;;7.84;35.73;100846.63;5388719;32;34533;-68
2022/03/05 11:02:07;;;;;;;15.90;7.73;;;;;;;9.75;32.36;100838.50;5379476;32;35479;-71
2022/03/05 11:05:10;;;;;;;19.63;9.30;;;;;;;11.59;29.26;100825.56;5391011;32;38069;-69
2022/03/05 11:08:16;;;;;;;20.87;9.73;;;;;;;12.61;27.83;100815.50;5380687;32;34629;-71
2022/03/05 11:11:20;;;;;;;15.27;8.55;;;;;;;12.01;28.87;100819.66;5391013;32;34755;-74
2022/03/05 11:14:22;;;;;;;17.10;9.52;;;;;;;10.76;29.63;100815.28;5391668;32;35024;-72
2022/03/05 11:17:25;;;;;;;20.23;9.93;;;;;;;12.56;27.00;100804.28;5366919;32;34299;-72
2022/03/05 11:20:27;;;;;;;16.30;8.50;;;;;;;12.15;27.27;100814.72;5395499;32;34575;-72
2022/03/05 11:23:31;;;;;;;16.27;8.63;;;;;;;10.74;29.45;100818.84;5382915;32;34089;-73
2022/03/05 11:26:37;;;;;;;16.63;7.80;;;;;;;9.30;30.88;100819.66;5374735;32;33551;-71
2022/03/05 11:30:03;;;;;;;15.27;7.93;;;;;;;8.86;31.58;100817.28;5393148;32;35959;-68
2022/03/05 11:33:09;;;;;;;15.63;8.47;;;;;;;9.20;31.69;100814.62;5384663;32;35347;-72
2022/03/05 11:36:38;;;;;;;18.17;8.70;;;;;;;8.78;32.74;100813.13;5381141;32;44356;-73
2022/03/05 11:39:41;;;;;;;17.30;8.87;;;;;;;8.36;34.28;100811.50;5363183;32;44468;-72
2022/03/05 11:42:43;;;;;;;15.38;8.10;;;;;;;7.75;35.40;100820.69;5382714;32;32612;-72
2022/03/05 11:46:02;;;;;;;18.67;8.33;;;;;;;7.80;35.33;100810.97;5346504;32;35243;-70
2022/03/05 11:49:11;;;;;;;16.97;8.10;;;;;;;8.22;34.44;100812.69;5383592;32;34867;-69
2022/03/05 11:52:13;;;;;;;18.37;7.80;;;;;;;8.68;33.21;100805.50;5391779;32;44471;-69
2022/03/05 11:55:25;;;;;;;16.83;7.27;;;;;;;9.39;31.07;100796.63;5370410;32;34660;-68
2022/03/05 11:58:30;;;;;;;17.57;7.90;;;;;;;9.21;31.85;100784.91;5389746;32;35234;-73
2022/03/05 12:01:41;;;;;;;17.43;8.00;;;;;;;8.24;33.21;100797.78;5373616;32;35545;-68
2022/03/05 12:04:46;;;;;;;14.50;6.80;;;;;;;8.05;34.04;100795.63;5384013;32;44390;-71
2022/03/05 12:07:49;;;;;;;13.27;6.60;;;;;;;8.29;32.97;100793.31;5377605;32;35546;-69
2022/03/05 12:11:12;;;;;;;13.47;6.87;;;;;;;8.76;32.08;100779.13;5389586;32;35091;-68
2022/03/05 12:14:14;;;;;;;14.97;6.47;;;;;;;7.94;33.25;100792.38;5381021;32;45208;-68
2022/03/05 12:17:20;;;;;;;11.73;5.37;;;;;;;9.14;31.22;100774.59;5361334;32;36318;-72
2022/03/05 12:20:29;;;;;;;13.60;5.80;;;;;;;8.72;31.24;100781.84;5398503;32;35346;-68
2022/03/05 12:23:31;;;;;;;15.80;6.47;;;;;;;8.89;30.44;100779.66;5394327;32;35279;-67
2022/03/05 12:26:40;;;;;;;13.53;5.80;;;;;;;7.17;33.60;100789.56;5378782;32;34021;-68
2022/03/05 12:29:47;;;;;;;14.10;7.13;;;;;;;8.85;31.05;100771.00;5383674;32;43851;-68
2022/03/05 12:32:51;;;;;;;16.83;6.70;;;;;;;7.98;32.43;100778.28;5387911;32;35011;-67
2022/03/05 12:35:55;;;;;;;13.63;6.37;;;;;;;8.04;32.18;100782.53;5390421;32;34434;-70
2022/03/05 12:38:59;;;;;;;12.70;6.10;;;;;;;8.11;32.18;100774.53;5377035;32;35777;-68
2022/03/05 12:42:04;;;;;;;15.93;6.80;;;;;;;8.58;31.79;100763.84;5359382;32;34477;-67
2022/03/05 12:45:07;;;;;;;13.17;7.00;;;;;;;8.63;31.48;100772.44;5389156;32;33311;-69
2022/03/05 12:48:12;;;;;;;14.27;6.12;;;;;;;8.81;31.95;100765.87;5383773;32;36063;-71
2022/03/05 12:51:14;;;;;;;15.57;6.67;;;;;;;8.46;31.77;100777.25;5404813;32;44438;-73
2022/03/05 12:54:16;;;;;;;15.23;6.53;;;;;;;8.15;32.52;100776.16;5383159;32;34518;-68
2022/03/05 12:57:19;;;;;;;14.93;6.63;;;;;;;7.73;33.89;100777.09;5376344;32;35123;-74
2022/03/05 13:00:21;;;;;;;14.33;5.93;;;;;;;7.76;33.81;100771.81;5386015;32;33615;-70
2022/03/05 13:03:24;;;;;;;12.30;6.03;;;;;;;9.23;31.03;100764.75;5383809;32;35174;-69
2022/03/05 13:06:27;;;;;;;12.98;6.30;;;;;;;10.11;29.21;100760.44;5366838;32;34755;-71
2022/03/05 13:09:30;;;;;;;13.37;6.23;;;;;;;9.78;29.92;100764.91;5373220;32;34980;-73
2022/03/05 13:12:37;;;;;;;13.93;6.60;;;;;;;9.69;30.06;100762.56;5391620;32;34910;-71
2022/03/05 13:15:40;;;;;;;13.37;6.57;;;;;;;9.13;30.75;100768.50;5382178;32;34851;-72
2022/03/05 13:18:43;;;;;;;14.02;6.50;;;;;;;9.42;30.82;100769.47;5368751;32;35598;-69
2022/03/05 13:21:47;;;;;;;13.60;6.40;;;;;;;9.09;31.02;100761.63;5387885;32;35560;-69
2022/03/05 13:24:50;;;;;;;12.27;5.67;;;;;;;9.55;30.19;100770.84;5368445;32;34433;-69
2022/03/05 13:27:52;;;;;;;14.53;7.03;;;;;;;8.02;32.30;100779.97;5385214;32;35450;-68
2022/03/05 13:31:00;;;;;;;14.20;6.53;;;;;;;8.55;31.86;100770.00;5395516;32;33946;-72
2022/03/05 13:34:04;;;;;;;14.07;6.70;;;;;;;8.25;32.07;100765.50;5406886;32;34444;-68
2022/03/05 13:37:08;;;;;;;13.75;6.57;;;;;;;9.83;29.70;100755.13;5384908;32;34223;-72
2022/03/05 13:40:11;;;;;;;16.17;7.10;;;;;;;9.78;29.93;100757.88;5370112;32;43953;-68
2022/03/05 13:43:20;;;;;;;15.85;6.80;;;;;;;9.55;30.23;100760.34;5377543;32;35546;-72
2022/03/05 13:46:25;;;;;;;15.43;6.73;;;;;;;7.79;33.26;100764.78;5380414;32;34605;-69
2022/03/05 13:49:28;;;;;;;12.23;5.43;;;;;;;7.77;33.28;100768.31;5393802;32;34717;-68
2022/03/05 13:52:31;;;;;;;12.55;5.82;;;;;;;7.99;32.11;100769.56;5349268;32;34522;-69
2022/03/05 13:55:35;;;;;;;;;;;;;;;8.43;31.55;100758.97;5389308;32;34062;-71
2022/03/05 13:58:38;;;;;;;14.70;6.40;;;;;;;8.67;30.90;100756.59;5383041;32;34899;-71
2022/03/05 14:01:45;;;;;;;14.93;6.25;;;;;;;7.58;33.04;100773.06;5379972;32;44915;-68
2022/03/05 14:05:09;;;;;;;12.13;5.80;;;;;;;7.86;32.55;100762.87;5384166;32;35384;-74
2022/03/05 14:08:11;;;;;;;;;;;;;;;7.53;33.06;100765.28;5359637;32;45599;-67
2022/03/05 14:11:13;;;;;;;13.10;6.27;;;;;;;7.48;33.00;100761.09;5392630;32;34987;-71